sensor_id;sensor_type;location;lat;lon;timestamp;pressure;altitude;pressure_sealevel;temperature;humidity
76858;BME280;65830;0.000;0.000;2023-05-18T00:00:12;99232.44;;;14.22;80.99
76858;BME280;65830;0.000;0.000;2023-05-18T00:02:41;99215.44;;;14.23;80.99
76858;BME280;65830;0.000;0.000;2023-05-18T00:05:06;99212.78;;;14.23;81.01
76858;BME280;65830;0.000;0.000;2023-05-18T00:07:35;99210.13;;;14.23;80.95
76858;BME280;65830;0.000;0.000;2023-05-18T00:10:01;99213.78;;;14.22;80.84
76858;BME280;65830;0.000;0.000;2023-05-18T00:12:27;99211.09;;;14.22;81.24
76858;BME280;65830;0.000;0.000;2023-05-18T00:14:53;99208.78;;;14.19;80.85
76858;BME280;65830;0.000;0.000;2023-05-18T00:17:18;99209.25;;;14.23;80.96
76858;BME280;65830;0.000;0.000;2023-05-18T00:19:44;99214.59;;;14.23;80.77
76858;BME280;65830;0.000;0.000;2023-05-18T00:22:10;99215.78;;;14.20;81.07
76858;BME280;65830;0.000;0.000;2023-05-18T00:24:46;99209.25;;;14.23;81.23
76858;BME280;65830;0.000;0.000;2023-05-18T00:27:12;99218.28;;;14.22;80.85
76858;BME280;65830;0.000;0.000;2023-05-18T00:29:37;99212.13;;;14.21;81.00
76858;BME280;65830;0.000;0.000;2023-05-18T00:32:03;99214.13;;;14.19;80.73
76858;BME280;65830;0.000;0.000;2023-05-18T00:34:29;99208.78;;;14.19;80.85
76858;BME280;65830;0.000;0.000;2023-05-18T00:36:54;99208.13;;;14.17;81.21
76858;BME280;65830;0.000;0.000;2023-05-18T00:39:20;99203.78;;;14.16;81.53
76858;BME280;65830;0.000;0.000;2023-05-18T00:41:45;99204.13;;;14.13;81.60
76858;BME280;65830;0.000;0.000;2023-05-18T00:44:11;99189.66;;;14.07;81.50
76858;BME280;65830;0.000;0.000;2023-05-18T00:46:36;99193.84;;;14.02;81.56
76858;BME280;65830;0.000;0.000;2023-05-18T00:49:02;99197.50;;;14.01;81.92
76858;BME280;65830;0.000;0.000;2023-05-18T00:51:28;99192.84;;;14.03;81.84
76858;BME280;65830;0.000;0.000;2023-05-18T00:53:54;99198.53;;;14.00;81.23
76858;BME280;65830;0.000;0.000;2023-05-18T00:56:20;99198.53;;;14.00;81.17
76858;BME280;65830;0.000;0.000;2023-05-18T00:58:53;99200.53;;;13.98;80.81
76858;BME280;65830;0.000;0.000;2023-05-18T01:01:27;99200.53;;;13.98;81.64
76858;BME280;65830;0.000;0.000;2023-05-18T01:03:53;99205.22;;;13.96;81.69
76858;BME280;65830;0.000;0.000;2023-05-18T01:06:21;99206.19;;;13.95;81.47
76858;BME280;65830;0.000;0.000;2023-05-18T01:08:50;99206.56;;;13.92;81.65
76858;BME280;65830;0.000;0.000;2023-05-18T01:14:05;99217.72;;;13.87;81.63
76858;BME280;65830;0.000;0.000;2023-05-18T01:16:39;99213.72;;;13.83;81.48
76858;BME280;65830;0.000;0.000;2023-05-18T01:19:21;99226.91;;;13.84;81.62
76858;BME280;65830;0.000;0.000;2023-05-18T01:24:42;99223.59;;;13.82;81.21
76858;BME280;65830;0.000;0.000;2023-05-18T01:27:09;99216.91;;;13.86;81.41
76858;BME280;65830;0.000;0.000;2023-05-18T01:29:38;99219.25;;;13.89;81.55
76858;BME280;65830;0.000;0.000;2023-05-18T01:32:06;99223.72;;;13.89;81.55
76858;BME280;65830;0.000;0.000;2023-05-18T01:34:32;99218.56;;;13.87;81.40
76858;BME280;65830;0.000;0.000;2023-05-18T01:36:58;99220.38;;;13.87;81.55
76858;BME280;65830;0.000;0.000;2023-05-18T01:39:24;99221.72;;;13.83;82.06
76858;BME280;65830;0.000;0.000;2023-05-18T01:41:55;99215.75;;;13.81;82.18
76858;BME280;65830;0.000;0.000;2023-05-18T01:44:28;99211.44;;;13.80;82.27
76858;BME280;65830;0.000;0.000;2023-05-18T01:46:59;99216.56;;;13.81;82.45
76858;BME280;65830;0.000;0.000;2023-05-18T01:51:52;99227.91;;;13.75;82.87
76858;BME280;65830;0.000;0.000;2023-05-18T01:54:18;99233.59;;;13.72;82.47
76858;BME280;65830;0.000;0.000;2023-05-18T01:56:46;99229.91;;;13.73;82.69
76858;BME280;65830;0.000;0.000;2023-05-18T01:59:12;99236.94;;;13.74;82.13
76858;BME280;65830;0.000;0.000;2023-05-18T02:01:38;99236.09;;;13.74;81.74
76858;BME280;65830;0.000;0.000;2023-05-18T02:04:07;99237.25;;;13.71;81.90
76858;BME280;65830;0.000;0.000;2023-05-18T02:06:34;99238.13;;;13.72;81.69
76858;BME280;65830;0.000;0.000;2023-05-18T02:08:59;99238.94;;;13.72;81.68
76858;BME280;65830;0.000;0.000;2023-05-18T02:11:25;99235.25;;;13.73;81.51
76858;BME280;65830;0.000;0.000;2023-05-18T02:13:51;99252.09;;;13.74;82.22
76858;BME280;65830;0.000;0.000;2023-05-18T02:16:16;99263.41;;;13.67;82.45
76858;BME280;65830;0.000;0.000;2023-05-18T02:18:42;99257.41;;;13.65;82.38
76858;BME280;65830;0.000;0.000;2023-05-18T02:21:08;99253.78;;;13.66;82.38
76858;BME280;65830;0.000;0.000;2023-05-18T02:23:34;99270.75;;;13.65;82.41
76858;BME280;65830;0.000;0.000;2023-05-18T02:26:00;99267.09;;;13.66;82.58
76858;BME280;65830;0.000;0.000;2023-05-18T02:28:25;99268.28;;;13.64;82.39
76858;BME280;65830;0.000;0.000;2023-05-18T02:30:51;99270.94;;;13.64;82.29
76858;BME280;65830;0.000;0.000;2023-05-18T02:33:16;99275.75;;;13.68;82.68
76858;BME280;65830;0.000;0.000;2023-05-18T02:35:43;99268.75;;;13.67;82.53
76858;BME280;65830;0.000;0.000;2023-05-18T02:38:10;99273.25;;;13.67;82.69
76858;BME280;65830;0.000;0.000;2023-05-18T02:40:36;99269.75;;;13.66;82.83
76858;BME280;65830;0.000;0.000;2023-05-18T02:43:01;99274.94;;;13.68;82.71
76858;BME280;65830;0.000;0.000;2023-05-18T02:45:28;99274.75;;;13.69;82.39
76858;BME280;65830;0.000;0.000;2023-05-18T02:47:54;99275.75;;;13.68;82.99
76858;BME280;65830;0.000;0.000;2023-05-18T02:50:20;99281.59;;;13.72;82.55
76858;BME280;65830;0.000;0.000;2023-05-18T02:52:46;99281.44;;;13.74;82.33
76858;BME280;65830;0.000;0.000;2023-05-18T02:55:14;99275.91;;;13.75;82.67
76858;BME280;65830;0.000;0.000;2023-05-18T02:57:51;99281.44;;;13.74;83.09
76858;BME280;65830;0.000;0.000;2023-05-18T03:00:24;99285.25;;;13.71;82.70
76858;BME280;65830;0.000;0.000;2023-05-18T03:02:50;99300.56;;;13.77;82.88
76858;BME280;65830;0.000;0.000;2023-05-18T03:05:17;99293.44;;;13.78;82.89
76858;BME280;65830;0.000;0.000;2023-05-18T03:07:49;99292.25;;;13.72;82.73
76858;BME280;65830;0.000;0.000;2023-05-18T03:10:20;99292.94;;;13.58;83.22
76858;BME280;65830;0.000;0.000;2023-05-18T03:12:46;99298.28;;;13.58;83.08
76858;BME280;65830;0.000;0.000;2023-05-18T03:15:12;99308.59;;;13.61;83.13
76858;BME280;65830;0.000;0.000;2023-05-18T03:17:43;99307.91;;;13.59;83.05
76858;BME280;65830;0.000;0.000;2023-05-18T03:20:10;99315.75;;;13.60;82.78
76858;BME280;65830;0.000;0.000;2023-05-18T03:22:36;99312.94;;;13.62;82.71
76858;BME280;65830;0.000;0.000;2023-05-18T03:25:03;99325.41;;;13.61;82.92
76858;BME280;65830;0.000;0.000;2023-05-18T03:27:28;99323.09;;;13.58;82.94
76858;BME280;65830;0.000;0.000;2023-05-18T03:29:55;99324.94;;;13.58;82.53
76858;BME280;65830;0.000;0.000;2023-05-18T03:32:21;99325.75;;;13.58;82.45
76858;BME280;65830;0.000;0.000;2023-05-18T03:34:47;99330.06;;;13.59;82.48
76858;BME280;65830;0.000;0.000;2023-05-18T03:37:13;99328.94;;;13.62;82.30
76858;BME280;65830;0.000;0.000;2023-05-18T03:39:38;99329.59;;;13.64;82.55
76858;BME280;65830;0.000;0.000;2023-05-18T03:42:05;99330.94;;;13.60;82.33
76858;BME280;65830;0.000;0.000;2023-05-18T03:44:30;99335.91;;;13.63;82.16
76858;BME280;65830;0.000;0.000;2023-05-18T03:46:56;99328.25;;;13.68;82.08
76858;BME280;65830;0.000;0.000;2023-05-18T03:49:21;99329.91;;;13.69;82.02
76858;BME280;65830;0.000;0.000;2023-05-18T03:51:47;99335.41;;;13.67;82.56
76858;BME280;65830;0.000;0.000;2023-05-18T03:54:14;99322.41;;;13.64;82.58
76858;BME280;65830;0.000;0.000;2023-05-18T03:56:39;99341.59;;;13.68;82.16
76858;BME280;65830;0.000;0.000;2023-05-18T03:59:06;99343.09;;;13.70;82.34
76858;BME280;65830;0.000;0.000;2023-05-18T04:01:32;99343.91;;;13.71;82.44
76858;BME280;65830;0.000;0.000;2023-05-18T04:03:58;99344.75;;;13.72;82.41
76858;BME280;65830;0.000;0.000;2023-05-18T04:06:25;99349.91;;;13.73;82.51
76858;BME280;65830;0.000;0.000;2023-05-18T04:08:51;99354.25;;;13.74;82.13
76858;BME280;65830;0.000;0.000;2023-05-18T04:11:16;99345.91;;;13.77;81.93
76858;BME280;65830;0.000;0.000;2023-05-18T04:13:42;99352.75;;;13.80;82.00
76858;BME280;65830;0.000;0.000;2023-05-18T04:16:08;99361.22;;;13.83;81.83
76858;BME280;65830;0.000;0.000;2023-05-18T04:18:38;99357.91;;;13.81;82.33
76858;BME280;65830;0.000;0.000;2023-05-18T04:21:03;99354.25;;;13.82;82.11
76858;BME280;65830;0.000;0.000;2023-05-18T04:23:31;99356.75;;;13.84;82.47
76858;BME280;65830;0.000;0.000;2023-05-18T04:25:58;99367.91;;;13.87;82.09
76858;BME280;65830;0.000;0.000;2023-05-18T04:28:23;99369.56;;;13.88;82.20
76858;BME280;65830;0.000;0.000;2023-05-18T04:30:49;99367.72;;;13.89;82.08
76858;BME280;65830;0.000;0.000;2023-05-18T04:33:17;99371.25;;;13.89;82.04
76858;BME280;65830;0.000;0.000;2023-05-18T04:35:44;99367.41;;;13.92;81.75
76858;BME280;65830;0.000;0.000;2023-05-18T04:38:11;99366.22;;;13.95;82.02
76858;BME280;65830;0.000;0.000;2023-05-18T04:40:37;99371.41;;;13.96;82.06
76858;BME280;65830;0.000;0.000;2023-05-18T04:43:06;99372.91;;;13.99;81.85
76858;BME280;65830;0.000;0.000;2023-05-18T04:45:32;99376.38;;;13.99;81.73
76858;BME280;65830;0.000;0.000;2023-05-18T04:47:59;99377.56;;;13.97;81.55
76858;BME280;65830;0.000;0.000;2023-05-18T04:50:33;99374.91;;;13.97;81.47
76858;BME280;65830;0.000;0.000;2023-05-18T04:56:30;99385.25;;;14.00;81.44
76858;BME280;65830;0.000;0.000;2023-05-18T04:58:55;99384.22;;;14.01;81.72
76858;BME280;65830;0.000;0.000;2023-05-18T05:01:24;99385.09;;;14.01;81.59
76858;BME280;65830;0.000;0.000;2023-05-18T05:06:30;99381.91;;;13.98;81.80
76858;BME280;65830;0.000;0.000;2023-05-18T05:09:26;99380.91;;;13.99;81.34
76858;BME280;65830;0.000;0.000;2023-05-18T05:12:14;99379.91;;;14.00;81.49
76858;BME280;65830;0.000;0.000;2023-05-18T05:14:39;99378.59;;;13.96;81.70
76858;BME280;65830;0.000;0.000;2023-05-18T05:17:05;99382.91;;;13.97;81.21
76858;BME280;65830;0.000;0.000;2023-05-18T05:19:31;99385.25;;;14.00;81.43
76858;BME280;65830;0.000;0.000;2023-05-18T05:21:57;99388.59;;;14.02;81.41
76858;BME280;65830;0.000;0.000;2023-05-18T05:24:23;99389.25;;;14.04;82.05
76858;BME280;65830;0.000;0.000;2023-05-18T05:26:48;99393.41;;;14.06;81.77
76858;BME280;65830;0.000;0.000;2023-05-18T05:29:15;99400.56;;;14.06;81.50
76858;BME280;65830;0.000;0.000;2023-05-18T05:31:40;99398.72;;;14.06;81.66
76858;BME280;65830;0.000;0.000;2023-05-18T05:34:06;99406.06;;;14.13;81.67
76858;BME280;65830;0.000;0.000;2023-05-18T05:36:31;99414.72;;;14.15;81.52
76858;BME280;65830;0.000;0.000;2023-05-18T05:38:58;99415.56;;;14.15;81.96
76858;BME280;65830;0.000;0.000;2023-05-18T05:41:23;99410.91;;;14.17;82.10
76858;BME280;65830;0.000;0.000;2023-05-18T05:43:49;99421.25;;;14.20;81.25
76858;BME280;65830;0.000;0.000;2023-05-18T05:46:15;99421.91;;;14.22;81.35
76858;BME280;65830;0.000;0.000;2023-05-18T05:48:41;99419.22;;;14.22;81.85
76858;BME280;65830;0.000;0.000;2023-05-18T05:51:07;99426.91;;;14.25;81.25
76858;BME280;65830;0.000;0.000;2023-05-18T05:53:32;99430.25;;;14.27;81.15
76858;BME280;65830;0.000;0.000;2023-05-18T05:55:58;99436.56;;;14.26;81.14
76858;BME280;65830;0.000;0.000;2023-05-18T05:58:24;99439.91;;;14.28;81.20
76858;BME280;65830;0.000;0.000;2023-05-18T06:00:54;99443.25;;;14.30;81.37
76858;BME280;65830;0.000;0.000;2023-05-18T06:03:20;99443.59;;;14.36;81.16
76858;BME280;65830;0.000;0.000;2023-05-18T06:05:46;99446.75;;;14.39;81.57
76858;BME280;65830;0.000;0.000;2023-05-18T06:08:13;99455.22;;;14.43;81.29
76858;BME280;65830;0.000;0.000;2023-05-18T06:10:40;99459.25;;;14.47;81.20
76858;BME280;65830;0.000;0.000;2023-05-18T06:13:07;99452.25;;;14.46;81.29
76858;BME280;65830;0.000;0.000;2023-05-18T06:15:53;99462.25;;;14.52;81.12
76858;BME280;65830;0.000;0.000;2023-05-18T06:18:19;99462.91;;;14.54;80.87
76858;BME280;65830;0.000;0.000;2023-05-18T06:20:46;99467.41;;;14.54;81.23
76858;BME280;65830;0.000;0.000;2023-05-18T06:23:13;99466.94;;;14.58;81.01
76858;BME280;65830;0.000;0.000;2023-05-18T06:25:50;99471.59;;;14.64;81.04
76858;BME280;65830;0.000;0.000;2023-05-18T06:28:51;99467.75;;;14.67;80.64
76858;BME280;65830;0.000;0.000;2023-05-18T06:31:37;99470.75;;;14.72;80.60
76858;BME280;65830;0.000;0.000;2023-05-18T06:34:08;99475.59;;;14.77;80.53
76858;BME280;65830;0.000;0.000;2023-05-18T06:36:34;99479.59;;;14.81;81.01
76858;BME280;65830;0.000;0.000;2023-05-18T06:39:00;99483.88;;;14.90;80.77
76858;BME280;65830;0.000;0.000;2023-05-18T06:41:25;99487.38;;;14.99;80.48
76858;BME280;65830;0.000;0.000;2023-05-18T06:43:51;99494.22;;;15.01;80.15
76858;BME280;65830;0.000;0.000;2023-05-18T06:46:28;99499.22;;;15.04;80.23
76858;BME280;65830;0.000;0.000;2023-05-18T06:48:59;99507.03;;;15.06;80.27
76858;BME280;65830;0.000;0.000;2023-05-18T06:51:26;99504.56;;;15.04;80.05
76858;BME280;65830;0.000;0.000;2023-05-18T06:53:53;99513.06;;;15.08;79.84
76858;BME280;65830;0.000;0.000;2023-05-18T06:56:19;99523.25;;;15.13;79.75
76858;BME280;65830;0.000;0.000;2023-05-18T06:58:46;99522.59;;;15.11;79.64
76858;BME280;65830;0.000;0.000;2023-05-18T07:01:12;99525.06;;;15.12;80.13
76858;BME280;65830;0.000;0.000;2023-05-18T07:03:38;99520.22;;;15.16;79.98
76858;BME280;65830;0.000;0.000;2023-05-18T07:06:03;99524.59;;;15.08;80.16
76858;BME280;65830;0.000;0.000;2023-05-18T07:08:29;99535.63;;;15.05;79.93
76858;BME280;65830;0.000;0.000;2023-05-18T07:11:02;99541.28;;;15.11;79.57
76858;BME280;65830;0.000;0.000;2023-05-18T07:13:28;99523.63;;;14.93;80.03
76858;BME280;65830;0.000;0.000;2023-05-18T07:15:54;99534.84;;;14.88;79.92
76858;BME280;65830;0.000;0.000;2023-05-18T07:18:19;99533.47;;;15.01;79.65
76858;BME280;65830;0.000;0.000;2023-05-18T07:20:45;99539.31;;;15.04;79.44
76858;BME280;65830;0.000;0.000;2023-05-18T07:23:10;99534.44;;;15.08;79.32
76858;BME280;65830;0.000;0.000;2023-05-18T07:25:36;99537.47;;;15.05;79.44
76858;BME280;65830;0.000;0.000;2023-05-18T07:28:01;99542.78;;;15.13;79.23
76858;BME280;65830;0.000;0.000;2023-05-18T07:30:27;99553.63;;;15.12;79.33
76858;BME280;65830;0.000;0.000;2023-05-18T07:32:53;99549.97;;;15.13;79.44
76858;BME280;65830;0.000;0.000;2023-05-18T07:35:22;99542.41;;;15.16;79.27
76858;BME280;65830;0.000;0.000;2023-05-18T07:37:49;99539.91;;;15.23;79.20
76858;BME280;65830;0.000;0.000;2023-05-18T07:40:16;99549.59;;;15.32;78.99
76858;BME280;65830;0.000;0.000;2023-05-18T07:42:42;99550.06;;;15.36;78.78
76858;BME280;65830;0.000;0.000;2023-05-18T07:45:07;99550.56;;;15.31;78.08
76858;BME280;65830;0.000;0.000;2023-05-18T07:47:33;99544.91;;;15.34;78.34
76858;BME280;65830;0.000;0.000;2023-05-18T07:49:59;99539.84;;;15.39;77.92
76858;BME280;65830;0.000;0.000;2023-05-18T07:52:24;99545.91;;;15.33;77.62
76858;BME280;65830;0.000;0.000;2023-05-18T07:54:51;99548.91;;;15.30;77.56
76858;BME280;65830;0.000;0.000;2023-05-18T07:57:16;99552.22;;;15.40;77.91
76858;BME280;65830;0.000;0.000;2023-05-18T07:59:42;99545.81;;;15.49;77.54
76858;BME280;65830;0.000;0.000;2023-05-18T08:02:07;99545.16;;;15.47;76.92
76858;BME280;65830;0.000;0.000;2023-05-18T08:04:33;99552.31;;;15.55;76.82
76858;BME280;65830;0.000;0.000;2023-05-18T08:06:58;99555.66;;;15.57;76.26
76858;BME280;65830;0.000;0.000;2023-05-18T08:09:25;99560.84;;;15.59;75.72
76858;BME280;65830;0.000;0.000;2023-05-18T08:11:51;99564.16;;;15.61;75.95
76858;BME280;65830;0.000;0.000;2023-05-18T08:14:17;99563.47;;;15.67;75.21
76858;BME280;65830;0.000;0.000;2023-05-18T08:16:43;99567.97;;;15.75;75.50
76858;BME280;65830;0.000;0.000;2023-05-18T08:19:08;99563.78;;;15.80;74.81
76858;BME280;65830;0.000;0.000;2023-05-18T08:21:34;99572.75;;;15.87;73.99
76858;BME280;65830;0.000;0.000;2023-05-18T08:24:01;99582.78;;;15.94;73.93
76858;BME280;65830;0.000;0.000;2023-05-18T08:26:26;99573.91;;;15.93;73.36
76858;BME280;65830;0.000;0.000;2023-05-18T08:28:52;99588.81;;;15.87;72.46
76858;BME280;65830;0.000;0.000;2023-05-18T08:31:17;99579.78;;;15.88;73.60
76858;BME280;65830;0.000;0.000;2023-05-18T08:33:43;99587.66;;;15.90;73.79
76858;BME280;65830;0.000;0.000;2023-05-18T08:36:09;99598.19;;;15.92;73.55
76858;BME280;65830;0.000;0.000;2023-05-18T08:39:03;99596.16;;;15.94;73.07
76858;BME280;65830;0.000;0.000;2023-05-18T08:41:35;99597.16;;;15.93;71.81
76858;BME280;65830;0.000;0.000;2023-05-18T08:44:08;99601.69;;;15.92;71.80
76858;BME280;65830;0.000;0.000;2023-05-18T08:46:39;99603.66;;;15.98;72.72
76858;BME280;65830;0.000;0.000;2023-05-18T08:49:05;99603.78;;;16.05;72.36
76858;BME280;65830;0.000;0.000;2023-05-18T08:51:34;99604.75;;;16.12;72.22
76858;BME280;65830;0.000;0.000;2023-05-18T08:54:00;99614.75;;;16.18;71.29
76858;BME280;65830;0.000;0.000;2023-05-18T08:56:26;99614.56;;;16.20;68.56
76858;BME280;65830;0.000;0.000;2023-05-18T08:58:55;99619.06;;;16.27;69.13
76858;BME280;65830;0.000;0.000;2023-05-18T09:01:21;99622.16;;;16.39;70.56
76858;BME280;65830;0.000;0.000;2023-05-18T09:03:52;99627.09;;;16.51;69.85
76858;BME280;65830;0.000;0.000;2023-05-18T09:06:18;99625.19;;;16.59;70.03
76858;BME280;65830;0.000;0.000;2023-05-18T09:08:44;99625.78;;;16.70;68.86
76858;BME280;65830;0.000;0.000;2023-05-18T09:11:10;99626.44;;;16.72;66.88
76858;BME280;65830;0.000;0.000;2023-05-18T09:13:36;99631.41;;;16.83;67.82
76858;BME280;65830;0.000;0.000;2023-05-18T09:16:02;99632.34;;;16.90;67.63
76858;BME280;65830;0.000;0.000;2023-05-18T09:18:28;99639.31;;;16.99;67.43
76858;BME280;65830;0.000;0.000;2023-05-18T09:20:54;99643.13;;;17.05;66.48
76858;BME280;65830;0.000;0.000;2023-05-18T09:23:19;99646.72;;;17.12;66.11
76858;BME280;65830;0.000;0.000;2023-05-18T09:25:45;99644.34;;;17.17;63.37
76858;BME280;65830;0.000;0.000;2023-05-18T09:28:24;99633.69;;;17.24;65.00
76858;BME280;65830;0.000;0.000;2023-05-18T09:30:50;99637.25;;;17.24;63.09
76858;BME280;65830;0.000;0.000;2023-05-18T09:33:17;99635.56;;;17.23;63.49
76858;BME280;65830;0.000;0.000;2023-05-18T09:35:46;99643.97;;;17.20;62.23
76858;BME280;65830;0.000;0.000;2023-05-18T09:38:12;99639.81;;;17.18;60.79
76858;BME280;65830;0.000;0.000;2023-05-18T09:40:42;99650.19;;;17.21;61.42
76858;BME280;65830;0.000;0.000;2023-05-18T09:43:08;99658.22;;;17.21;59.16
76858;BME280;65830;0.000;0.000;2023-05-18T09:45:33;99658.13;;;17.29;62.06
76858;BME280;65830;0.000;0.000;2023-05-18T09:48:05;99656.09;;;17.31;60.77
76858;BME280;65830;0.000;0.000;2023-05-18T09:50:31;99669.13;;;17.34;60.85
76858;BME280;65830;0.000;0.000;2023-05-18T09:52:58;99672.28;;;17.38;61.40
76858;BME280;65830;0.000;0.000;2023-05-18T09:55:24;99664.53;;;17.43;60.43
76858;BME280;65830;0.000;0.000;2023-05-18T09:57:50;99662.59;;;17.52;60.75
76858;BME280;65830;0.000;0.000;2023-05-18T10:00:16;99664.81;;;17.63;61.83
76858;BME280;65830;0.000;0.000;2023-05-18T10:02:44;99663.72;;;17.72;60.70
76858;BME280;65830;0.000;0.000;2023-05-18T10:05:30;99670.81;;;17.80;61.13
76858;BME280;65830;0.000;0.000;2023-05-18T10:07:58;99667.47;;;17.86;58.60
76858;BME280;65830;0.000;0.000;2023-05-18T10:10:24;99668.53;;;17.92;57.84
76858;BME280;65830;0.000;0.000;2023-05-18T10:12:51;99663.28;;;17.98;58.88
76858;BME280;65830;0.000;0.000;2023-05-18T10:15:18;99670.69;;;17.96;55.38
76858;BME280;65830;0.000;0.000;2023-05-18T10:17:44;99670.75;;;18.03;58.05
76858;BME280;65830;0.000;0.000;2023-05-18T10:20:10;99681.97;;;18.06;58.80
76858;BME280;65830;0.000;0.000;2023-05-18T10:22:38;99676.22;;;18.10;58.44
76858;BME280;65830;0.000;0.000;2023-05-18T10:25:05;99678.53;;;18.13;58.11
76858;BME280;65830;0.000;0.000;2023-05-18T10:27:33;99677.25;;;18.09;56.24
76858;BME280;65830;0.000;0.000;2023-05-18T10:29:59;99677.41;;;18.07;58.67
76858;BME280;65830;0.000;0.000;2023-05-18T10:32:28;99678.06;;;18.09;57.12
76858;BME280;65830;0.000;0.000;2023-05-18T10:34:55;99679.56;;;18.12;58.70
76858;BME280;65830;0.000;0.000;2023-05-18T10:37:23;99678.53;;;18.13;56.61
76858;BME280;65830;0.000;0.000;2023-05-18T10:39:50;99677.06;;;18.10;56.23
76858;BME280;65830;0.000;0.000;2023-05-18T10:42:18;99676.66;;;18.13;58.28
76858;BME280;65830;0.000;0.000;2023-05-18T10:44:45;99674.56;;;18.09;58.66
76858;BME280;65830;0.000;0.000;2023-05-18T10:47:11;99682.97;;;18.20;58.92
76858;BME280;65830;0.000;0.000;2023-05-18T10:49:38;99676.38;;;18.23;56.12
76858;BME280;65830;0.000;0.000;2023-05-18T10:52:04;99678.94;;;18.31;58.51
76858;BME280;65830;0.000;0.000;2023-05-18T10:54:31;99676.47;;;18.30;58.47
76858;BME280;65830;0.000;0.000;2023-05-18T10:56:57;99682.09;;;18.35;58.04
76858;BME280;65830;0.000;0.000;2023-05-18T10:59:24;99684.53;;;18.30;56.00
76858;BME280;65830;0.000;0.000;2023-05-18T11:01:50;99680.91;;;18.22;56.73
76858;BME280;65830;0.000;0.000;2023-05-18T11:04:24;99685.38;;;18.15;55.61
76858;BME280;65830;0.000;0.000;2023-05-18T11:07:00;99679.84;;;18.02;54.79
76858;BME280;65830;0.000;0.000;2023-05-18T11:09:27;99683.66;;;17.93;57.12
76858;BME280;65830;0.000;0.000;2023-05-18T11:11:54;99689.09;;;17.84;54.93
76858;BME280;65830;0.000;0.000;2023-05-18T11:14:26;99690.75;;;17.85;56.61
76858;BME280;65830;0.000;0.000;2023-05-18T11:16:52;99690.66;;;17.79;56.35
76858;BME280;65830;0.000;0.000;2023-05-18T11:19:18;99697.59;;;17.73;55.34
76858;BME280;65830;0.000;0.000;2023-05-18T11:26:43;99701.28;;;17.57;56.75
76858;BME280;65830;0.000;0.000;2023-05-18T11:29:54;99702.47;;;17.55;57.32
76858;BME280;65830;0.000;0.000;2023-05-18T11:31:55;99697.13;;;17.55;57.49
76858;BME280;65830;0.000;0.000;2023-05-18T11:37:02;99708.38;;;17.50;57.38
76858;BME280;65830;0.000;0.000;2023-05-18T11:39:28;99701.69;;;17.46;58.92
76858;BME280;65830;0.000;0.000;2023-05-18T11:41:58;99708.94;;;17.45;57.71
76858;BME280;65830;0.000;0.000;2023-05-18T11:44:24;99709.97;;;17.44;57.65
76858;BME280;65830;0.000;0.000;2023-05-18T11:49:18;99710.78;;;17.45;58.42
76858;BME280;65830;0.000;0.000;2023-05-18T11:52:03;99715.97;;;17.46;58.43
76858;BME280;65830;0.000;0.000;2023-05-18T11:54:34;99720.31;;;17.47;58.70
76858;BME280;65830;0.000;0.000;2023-05-18T11:57:00;99728.34;;;17.47;58.00
76858;BME280;65830;0.000;0.000;2023-05-18T11:59:29;99721.78;;;17.50;59.25
76858;BME280;65830;0.000;0.000;2023-05-18T12:01:56;99721.25;;;17.55;59.85
76858;BME280;65830;0.000;0.000;2023-05-18T12:04:22;99727.44;;;17.55;60.48
76858;BME280;65830;0.000;0.000;2023-05-18T12:06:48;99725.88;;;17.61;59.31
76858;BME280;65830;0.000;0.000;2023-05-18T12:09:14;99723.84;;;17.63;59.19
76858;BME280;65830;0.000;0.000;2023-05-18T12:11:39;99726.53;;;17.63;59.75
76858;BME280;65830;0.000;0.000;2023-05-18T12:14:05;99728.41;;;17.62;60.10
76858;BME280;65830;0.000;0.000;2023-05-18T12:16:31;99722.91;;;17.56;59.47
76858;BME280;65830;0.000;0.000;2023-05-18T12:18:57;99732.50;;;17.50;60.46
76858;BME280;65830;0.000;0.000;2023-05-18T12:21:22;99732.34;;;17.52;61.15
76858;BME280;65830;0.000;0.000;2023-05-18T12:23:58;99738.34;;;17.54;61.20
76858;BME280;65830;0.000;0.000;2023-05-18T12:26:24;99740.56;;;17.50;60.32
76858;BME280;65830;0.000;0.000;2023-05-18T12:28:55;99739.72;;;17.50;60.96
76858;BME280;65830;0.000;0.000;2023-05-18T12:31:21;99741.03;;;17.54;60.37
76858;BME280;65830;0.000;0.000;2023-05-18T12:33:47;99748.09;;;17.55;60.31
76858;BME280;65830;0.000;0.000;2023-05-18T12:36:12;99737.63;;;17.60;60.94
76858;BME280;65830;0.000;0.000;2023-05-18T12:38:39;99741.25;;;17.67;60.38
76858;BME280;65830;0.000;0.000;2023-05-18T12:41:04;99748.94;;;17.70;60.15
76858;BME280;65830;0.000;0.000;2023-05-18T12:43:34;99739.69;;;17.73;60.63
76858;BME280;65830;0.000;0.000;2023-05-18T12:46:00;99738.13;;;17.78;61.39
76858;BME280;65830;0.000;0.000;2023-05-18T12:48:26;99737.03;;;17.88;61.79
76858;BME280;65830;0.000;0.000;2023-05-18T12:50:51;99736.69;;;17.91;61.55
76858;BME280;65830;0.000;0.000;2023-05-18T12:53:17;99740.00;;;17.93;60.94
76858;BME280;65830;0.000;0.000;2023-05-18T12:55:43;99746.50;;;17.98;60.98
76858;BME280;65830;0.000;0.000;2023-05-18T12:58:10;99747.31;;;17.99;60.41
76858;BME280;65830;0.000;0.000;2023-05-18T13:00:44;99748.34;;;17.98;60.28
76858;BME280;65830;0.000;0.000;2023-05-18T13:03:11;99752.59;;;18.07;60.78
76858;BME280;65830;0.000;0.000;2023-05-18T13:05:38;99754.09;;;18.10;59.94
76858;BME280;65830;0.000;0.000;2023-05-18T13:08:05;99743.53;;;18.08;59.77
76858;BME280;65830;0.000;0.000;2023-05-18T13:10:31;99754.09;;;18.10;60.71
76858;BME280;65830;0.000;0.000;2023-05-18T13:12:57;99749.91;;;18.07;60.64
76858;BME280;65830;0.000;0.000;2023-05-18T13:15:37;99751.59;;;18.08;60.64
76858;BME280;65830;0.000;0.000;2023-05-18T13:18:03;99756.03;;;18.16;61.10
76858;BME280;65830;0.000;0.000;2023-05-18T13:20:33;99750.19;;;18.12;61.10
76858;BME280;65830;0.000;0.000;2023-05-18T13:23:03;99752.72;;;18.14;60.05
76858;BME280;65830;0.000;0.000;2023-05-18T13:25:30;99749.44;;;18.18;60.64
76858;BME280;65830;0.000;0.000;2023-05-18T13:27:55;99752.41;;;18.23;60.46
76858;BME280;65830;0.000;0.000;2023-05-18T13:30:21;99753.59;;;18.21;60.51
76858;BME280;65830;0.000;0.000;2023-05-18T13:32:47;99756.75;;;18.24;60.72
76858;BME280;65830;0.000;0.000;2023-05-18T13:35:12;99760.38;;;18.32;60.61